sensor_id;sensor_type;location;lat;lon;timestamp;temperature;humidity
33580;DHT22;19909;43.644;-79.438;2024-01-10T00:00:30;23.50;29.30
33580;DHT22;19909;43.644;-79.438;2024-01-10T00:02:56;23.60;29.30
33580;DHT22;19909;43.644;-79.438;2024-01-10T00:05:23;23.70;29.20
33580;DHT22;19909;43.644;-79.438;2024-01-10T00:07:53;23.80;29.10
33580;DHT22;19909;43.644;-79.438;2024-01-10T00:10:20;23.90;29.00
33580;DHT22;19909;43.644;-79.438;2024-01-10T00:12:50;23.90;29.00
33580;DHT22;19909;43.644;-79.438;2024-01-10T00:15:16;23.80;29.00
33580;DHT22;19909;43.644;-79.438;2024-01-10T00:17:43;23.70;29.00
33580;DHT22;19909;43.644;-79.438;2024-01-10T00:20:09;23.70;29.10
33580;DHT22;19909;43.644;-79.438;2024-01-10T00:22:35;23.60;29.20
33580;DHT22;19909;43.644;-79.438;2024-01-10T00:25:02;23.50;29.20
33580;DHT22;19909;43.644;-79.438;2024-01-10T00:27:28;23.40;29.30
33580;DHT22;19909;43.644;-79.438;2024-01-10T00:29:54;23.40;29.40
33580;DHT22;19909;43.644;-79.438;2024-01-10T00:32:22;23.40;29.40
33580;DHT22;19909;43.644;-79.438;2024-01-10T00:34:48;23.40;29.40
33580;DHT22;19909;43.644;-79.438;2024-01-10T00:37:15;23.50;29.40
33580;DHT22;19909;43.644;-79.438;2024-01-10T00:39:41;23.60;29.40
33580;DHT22;19909;43.644;-79.438;2024-01-10T00:42:07;23.70;29.30
33580;DHT22;19909;43.644;-79.438;2024-01-10T00:44:34;23.80;29.30
33580;DHT22;19909;43.644;-79.438;2024-01-10T00:47:00;23.90;29.20
33580;DHT22;19909;43.644;-79.438;2024-01-10T00:49:27;23.90;29.20
33580;DHT22;19909;43.644;-79.438;2024-01-10T00:51:53;23.90;29.20
33580;DHT22;19909;43.644;-79.438;2024-01-10T00:54:19;23.80;29.30
33580;DHT22;19909;43.644;-79.438;2024-01-10T00:56:46;23.70;29.20
33580;DHT22;19909;43.644;-79.438;2024-01-10T00:59:12;23.70;29.30
33580;DHT22;19909;43.644;-79.438;2024-01-10T01:01:39;23.60;29.30
33580;DHT22;19909;43.644;-79.438;2024-01-10T01:04:05;23.50;29.40
33580;DHT22;19909;43.644;-79.438;2024-01-10T01:06:32;23.40;29.40
33580;DHT22;19909;43.644;-79.438;2024-01-10T01:08:58;23.40;29.50
33580;DHT22;19909;43.644;-79.438;2024-01-10T01:11:24;23.30;29.50
33580;DHT22;19909;43.644;-79.438;2024-01-10T01:13:50;23.30;29.50
33580;DHT22;19909;43.644;-79.438;2024-01-10T01:16:17;23.40;29.50
33580;DHT22;19909;43.644;-79.438;2024-01-10T01:18:44;23.40;29.50
33580;DHT22;19909;43.644;-79.438;2024-01-10T01:21:14;23.50;29.50
33580;DHT22;19909;43.644;-79.438;2024-01-10T01:23:42;23.70;29.50
33580;DHT22;19909;43.644;-79.438;2024-01-10T01:26:08;23.80;29.40
33580;DHT22;19909;43.644;-79.438;2024-01-10T01:28:35;23.90;29.30
33580;DHT22;19909;43.644;-79.438;2024-01-10T01:31:01;23.90;29.30
33580;DHT22;19909;43.644;-79.438;2024-01-10T01:33:28;23.90;29.30
33580;DHT22;19909;43.644;-79.438;2024-01-10T01:35:54;23.80;29.30
33580;DHT22;19909;43.644;-79.438;2024-01-10T01:38:20;23.80;29.40
33580;DHT22;19909;43.644;-79.438;2024-01-10T01:40:46;23.70;29.40
33580;DHT22;19909;43.644;-79.438;2024-01-10T01:43:24;23.60;29.30
33580;DHT22;19909;43.644;-79.438;2024-01-10T01:45:52;23.50;29.50
33580;DHT22;19909;43.644;-79.438;2024-01-10T01:48:23;23.40;29.50
33580;DHT22;19909;43.644;-79.438;2024-01-10T01:51:03;23.40;29.60
33580;DHT22;19909;43.644;-79.438;2024-01-10T01:53:30;23.30;29.70
33580;DHT22;19909;43.644;-79.438;2024-01-10T01:56:01;23.40;29.70
33580;DHT22;19909;43.644;-79.438;2024-01-10T01:58:29;23.40;29.70
33580;DHT22;19909;43.644;-79.438;2024-01-10T02:00:55;23.50;29.60
33580;DHT22;19909;43.644;-79.438;2024-01-10T02:03:22;23.60;29.60
33580;DHT22;19909;43.644;-79.438;2024-01-10T02:05:49;23.70;29.50
33580;DHT22;19909;43.644;-79.438;2024-01-10T02:08:16;23.80;29.50
33580;DHT22;19909;43.644;-79.438;2024-01-10T02:10:42;23.90;29.40
33580;DHT22;19909;43.644;-79.438;2024-01-10T02:13:08;24.00;29.30
33580;DHT22;19909;43.644;-79.438;2024-01-10T02:15:37;24.00;29.40
33580;DHT22;19909;43.644;-79.438;2024-01-10T02:18:06;23.90;29.40
33580;DHT22;19909;43.644;-79.438;2024-01-10T02:20:33;23.80;29.40
33580;DHT22;19909;43.644;-79.438;2024-01-10T02:22:59;23.80;29.50
33580;DHT22;19909;43.644;-79.438;2024-01-10T02:25:25;23.70;29.50
33580;DHT22;19909;43.644;-79.438;2024-01-10T02:27:52;23.60;29.60
33580;DHT22;19909;43.644;-79.438;2024-01-10T02:30:19;23.50;29.60
33580;DHT22;19909;43.644;-79.438;2024-01-10T02:32:46;23.50;29.70
33580;DHT22;19909;43.644;-79.438;2024-01-10T02:35:12;23.40;29.70
33580;DHT22;19909;43.644;-79.438;2024-01-10T02:37:38;23.40;29.80
33580;DHT22;19909;43.644;-79.438;2024-01-10T02:40:05;23.40;29.80
33580;DHT22;19909;43.644;-79.438;2024-01-10T02:42:32;23.50;29.80
33580;DHT22;19909;43.644;-79.438;2024-01-10T02:44:58;23.50;29.70
33580;DHT22;19909;43.644;-79.438;2024-01-10T02:47:24;23.70;29.70
33580;DHT22;19909;43.644;-79.438;2024-01-10T02:49:52;23.80;29.60
33580;DHT22;19909;43.644;-79.438;2024-01-10T02:52:18;23.90;29.50
33580;DHT22;19909;43.644;-79.438;2024-01-10T02:54:45;24.00;29.50
33580;DHT22;19909;43.644;-79.438;2024-01-10T02:57:12;24.00;29.50
33580;DHT22;19909;43.644;-79.438;2024-01-10T02:59:39;23.90;29.60
33580;DHT22;19909;43.644;-79.438;2024-01-10T03:02:05;23.80;29.60
33580;DHT22;19909;43.644;-79.438;2024-01-10T03:04:31;23.80;29.70
33580;DHT22;19909;43.644;-79.438;2024-01-10T03:06:57;23.70;29.70
33580;DHT22;19909;43.644;-79.438;2024-01-10T03:09:24;23.60;29.80
33580;DHT22;19909;43.644;-79.438;2024-01-10T03:11:50;23.60;29.80
33580;DHT22;19909;43.644;-79.438;2024-01-10T03:14:17;23.50;29.90
33580;DHT22;19909;43.644;-79.438;2024-01-10T03:16:43;23.40;29.90
33580;DHT22;19909;43.644;-79.438;2024-01-10T03:19:10;23.40;30.00
33580;DHT22;19909;43.644;-79.438;2024-01-10T03:21:36;23.50;30.00
33580;DHT22;19909;43.644;-79.438;2024-01-10T03:24:03;23.50;29.90
33580;DHT22;19909;43.644;-79.438;2024-01-10T03:26:29;23.60;29.80
33580;DHT22;19909;43.644;-79.438;2024-01-10T03:28:57;23.70;29.80
33580;DHT22;19909;43.644;-79.438;2024-01-10T03:31:24;23.80;29.70
33580;DHT22;19909;43.644;-79.438;2024-01-10T03:33:52;23.90;29.60
33580;DHT22;19909;43.644;-79.438;2024-01-10T03:36:18;23.90;29.70
33580;DHT22;19909;43.644;-79.438;2024-01-10T03:38:45;23.90;29.80
33580;DHT22;19909;43.644;-79.438;2024-01-10T03:41:16;23.80;29.80
33580;DHT22;19909;43.644;-79.438;2024-01-10T03:43:42;23.80;29.80
33580;DHT22;19909;43.644;-79.438;2024-01-10T03:46:09;23.70;29.90
33580;DHT22;19909;43.644;-79.438;2024-01-10T03:48:35;23.60;29.90
33580;DHT22;19909;43.644;-79.438;2024-01-10T03:51:03;23.50;30.00
33580;DHT22;19909;43.644;-79.438;2024-01-10T03:53:30;23.50;30.00
33580;DHT22;19909;43.644;-79.438;2024-01-10T03:55:57;23.40;30.10
33580;DHT22;19909;43.644;-79.438;2024-01-10T03:58:24;23.40;30.10
33580;DHT22;19909;43.644;-79.438;2024-01-10T04:00:52;23.40;30.10
33580;DHT22;19909;43.644;-79.438;2024-01-10T04:03:18;23.40;30.10
33580;DHT22;19909;43.644;-79.438;2024-01-10T04:05:44;23.40;30.00
33580;DHT22;19909;43.644;-79.438;2024-01-10T04:08:10;23.50;30.00
33580;DHT22;19909;43.644;-79.438;2024-01-10T04:10:37;23.60;29.90
33580;DHT22;19909;43.644;-79.438;2024-01-10T04:13:04;23.80;29.90
33580;DHT22;19909;43.644;-79.438;2024-01-10T04:15:30;23.80;29.70
33580;DHT22;19909;43.644;-79.438;2024-01-10T04:17:56;23.90;29.80
33580;DHT22;19909;43.644;-79.438;2024-01-10T04:20:23;23.90;29.90
33580;DHT22;19909;43.644;-79.438;2024-01-10T04:22:49;23.80;29.90
33580;DHT22;19909;43.644;-79.438;2024-01-10T04:25:15;23.80;30.00
33580;DHT22;19909;43.644;-79.438;2024-01-10T04:27:42;23.70;30.00
33580;DHT22;19909;43.644;-79.438;2024-01-10T04:30:08;23.70;30.10
33580;DHT22;19909;43.644;-79.438;2024-01-10T04:32:34;23.60;30.10
33580;DHT22;19909;43.644;-79.438;2024-01-10T04:35:00;23.50;30.20
33580;DHT22;19909;43.644;-79.438;2024-01-10T04:37:27;23.50;30.30
33580;DHT22;19909;43.644;-79.438;2024-01-10T04:39:53;23.40;30.30
33580;DHT22;19909;43.644;-79.438;2024-01-10T04:42:19;23.30;30.30
33580;DHT22;19909;43.644;-79.438;2024-01-10T04:44:45;23.30;30.40
33580;DHT22;19909;43.644;-79.438;2024-01-10T04:47:12;23.40;30.40
33580;DHT22;19909;43.644;-79.438;2024-01-10T04:49:38;23.40;30.40
33580;DHT22;19909;43.644;-79.438;2024-01-10T04:52:07;23.50;30.30
33580;DHT22;19909;43.644;-79.438;2024-01-10T04:54:33;23.50;30.10
33580;DHT22;19909;43.644;-79.438;2024-01-10T04:57:00;23.70;30.00
33580;DHT22;19909;43.644;-79.438;2024-01-10T04:59:26;23.80;30.00
33580;DHT22;19909;43.644;-79.438;2024-01-10T05:01:52;23.90;29.90
33580;DHT22;19909;43.644;-79.438;2024-01-10T05:04:19;23.90;30.00
33580;DHT22;19909;43.644;-79.438;2024-01-10T05:06:46;23.90;30.00
33580;DHT22;19909;43.644;-79.438;2024-01-10T05:09:12;23.80;30.00
33580;DHT22;19909;43.644;-79.438;2024-01-10T05:11:39;23.80;30.20
33580;DHT22;19909;43.644;-79.438;2024-01-10T05:14:06;23.70;30.20
33580;DHT22;19909;43.644;-79.438;2024-01-10T05:16:32;23.70;30.30
33580;DHT22;19909;43.644;-79.438;2024-01-10T05:19:01;23.50;30.30
33580;DHT22;19909;43.644;-79.438;2024-01-10T05:21:30;23.50;30.40
33580;DHT22;19909;43.644;-79.438;2024-01-10T05:23:57;23.40;30.40
33580;DHT22;19909;43.644;-79.438;2024-01-10T05:28:53;23.30;30.70
33580;DHT22;19909;43.644;-79.438;2024-01-10T05:31:19;23.40;30.60
33580;DHT22;19909;43.644;-79.438;2024-01-10T05:33:46;23.40;30.50
33580;DHT22;19909;43.644;-79.438;2024-01-10T05:36:12;23.50;30.40
33580;DHT22;19909;43.644;-79.438;2024-01-10T05:38:39;23.60;30.30
33580;DHT22;19909;43.644;-79.438;2024-01-10T05:41:06;23.70;30.20
33580;DHT22;19909;43.644;-79.438;2024-01-10T05:43:32;23.70;30.00
33580;DHT22;19909;43.644;-79.438;2024-01-10T05:45:59;23.80;30.20
33580;DHT22;19909;43.644;-79.438;2024-01-10T05:48:26;23.70;30.30
33580;DHT22;19909;43.644;-79.438;2024-01-10T05:50:52;23.70;30.30
33580;DHT22;19909;43.644;-79.438;2024-01-10T05:53:18;23.70;30.40
33580;DHT22;19909;43.644;-79.438;2024-01-10T05:55:44;23.60;30.40
33580;DHT22;19909;43.644;-79.438;2024-01-10T05:58:11;23.50;30.50
33580;DHT22;19909;43.644;-79.438;2024-01-10T06:00:37;23.50;30.60
33580;DHT22;19909;43.644;-79.438;2024-01-10T06:03:04;23.40;30.60
33580;DHT22;19909;43.644;-79.438;2024-01-10T06:05:30;23.40;30.60
33580;DHT22;19909;43.644;-79.438;2024-01-10T06:07:57;23.40;30.50
33580;DHT22;19909;43.644;-79.438;2024-01-10T06:10:24;23.50;30.50
33580;DHT22;19909;43.644;-79.438;2024-01-10T06:12:50;23.50;30.40
33580;DHT22;19909;43.644;-79.438;2024-01-10T06:15:26;23.60;30.20
33580;DHT22;19909;43.644;-79.438;2024-01-10T06:17:54;23.70;30.20
33580;DHT22;19909;43.644;-79.438;2024-01-10T06:20:21;23.80;30.00
33580;DHT22;19909;43.644;-79.438;2024-01-10T06:22:47;23.90;30.00
33580;DHT22;19909;43.644;-79.438;2024-01-10T06:25:13;23.90;30.10
33580;DHT22;19909;43.644;-79.438;2024-01-10T06:27:40;23.90;30.30
33580;DHT22;19909;43.644;-79.438;2024-01-10T06:30:07;23.80;30.30
33580;DHT22;19909;43.644;-79.438;2024-01-10T06:32:34;23.70;30.30
33580;DHT22;19909;43.644;-79.438;2024-01-10T06:35:00;23.70;30.50
33580;DHT22;19909;43.644;-79.438;2024-01-10T06:37:30;23.60;30.60
33580;DHT22;19909;43.644;-79.438;2024-01-10T06:39:56;23.50;30.60
33580;DHT22;19909;43.644;-79.438;2024-01-10T06:42:23;23.40;30.60
33580;DHT22;19909;43.644;-79.438;2024-01-10T06:44:49;23.40;30.70
33580;DHT22;19909;43.644;-79.438;2024-01-10T06:47:15;23.40;30.80
33580;DHT22;19909;43.644;-79.438;2024-01-10T06:49:42;23.30;30.80
33580;DHT22;19909;43.644;-79.438;2024-01-10T06:52:08;23.30;30.80
33580;DHT22;19909;43.644;-79.438;2024-01-10T06:54:34;23.40;30.80
33580;DHT22;19909;43.644;-79.438;2024-01-10T06:57:01;23.40;30.60
33580;DHT22;19909;43.644;-79.438;2024-01-10T06:59:27;23.50;30.50
33580;DHT22;19909;43.644;-79.438;2024-01-10T07:01:54;23.60;30.40
33580;DHT22;19909;43.644;-79.438;2024-01-10T07:04:25;23.70;30.30
33580;DHT22;19909;43.644;-79.438;2024-01-10T07:06:52;23.80;30.10
33580;DHT22;19909;43.644;-79.438;2024-01-10T07:09:18;23.90;30.10
33580;DHT22;19909;43.644;-79.438;2024-01-10T07:11:48;23.90;30.30
33580;DHT22;19909;43.644;-79.438;2024-01-10T07:14:15;23.80;30.30
33580;DHT22;19909;43.644;-79.438;2024-01-10T07:16:42;23.80;30.40
33580;DHT22;19909;43.644;-79.438;2024-01-10T07:19:12;23.70;30.50
33580;DHT22;19909;43.644;-79.438;2024-01-10T07:24:09;23.60;30.60
33580;DHT22;19909;43.644;-79.438;2024-01-10T07:26:36;23.50;30.70
33580;DHT22;19909;43.644;-79.438;2024-01-10T07:29:03;23.40;30.70
33580;DHT22;19909;43.644;-79.438;2024-01-10T07:31:29;23.40;30.80
33580;DHT22;19909;43.644;-79.438;2024-01-10T07:33:57;23.40;30.90
33580;DHT22;19909;43.644;-79.438;2024-01-10T07:36:25;23.30;30.80
33580;DHT22;19909;43.644;-79.438;2024-01-10T07:38:56;23.40;30.70
33580;DHT22;19909;43.644;-79.438;2024-01-10T07:41:25;23.40;30.60
33580;DHT22;19909;43.644;-79.438;2024-01-10T07:43:51;23.50;30.50
33580;DHT22;19909;43.644;-79.438;2024-01-10T07:46:17;23.60;30.40
33580;DHT22;19909;43.644;-79.438;2024-01-10T07:48:44;23.70;30.90
33580;DHT22;19909;43.644;-79.438;2024-01-10T07:51:10;23.80;30.30
33580;DHT22;19909;43.644;-79.438;2024-01-10T07:53:37;23.90;30.10
33580;DHT22;19909;43.644;-79.438;2024-01-10T07:56:04;24.00;30.20
33580;DHT22;19909;43.644;-79.438;2024-01-10T07:58:31;23.90;30.30
33580;DHT22;19909;43.644;-79.438;2024-01-10T08:00:57;23.80;30.40
33580;DHT22;19909;43.644;-79.438;2024-01-10T08:03:23;23.80;30.40
33580;DHT22;19909;43.644;-79.438;2024-01-10T08:05:50;23.70;30.50
33580;DHT22;19909;43.644;-79.438;2024-01-10T08:08:16;23.60;30.50
33580;DHT22;19909;43.644;-79.438;2024-01-10T08:10:42;23.60;30.60
33580;DHT22;19909;43.644;-79.438;2024-01-10T08:13:08;23.50;30.60
33580;DHT22;19909;43.644;-79.438;2024-01-10T08:15:35;23.40;30.70
33580;DHT22;19909;43.644;-79.438;2024-01-10T08:18:02;23.40;30.80
33580;DHT22;19909;43.644;-79.438;2024-01-10T08:20:33;23.30;30.80
33580;DHT22;19909;43.644;-79.438;2024-01-10T08:22:59;23.30;30.80
33580;DHT22;19909;43.644;-79.438;2024-01-10T08:25:26;23.30;30.70
33580;DHT22;19909;43.644;-79.438;2024-01-10T08:27:52;23.40;30.70
33580;DHT22;19909;43.644;-79.438;2024-01-10T08:30:21;23.50;30.50
33580;DHT22;19909;43.644;-79.438;2024-01-10T08:32:47;23.60;30.40
33580;DHT22;19909;43.644;-79.438;2024-01-10T08:35:14;23.70;30.40
33580;DHT22;19909;43.644;-79.438;2024-01-10T08:37:41;23.80;30.30
33580;DHT22;19909;43.644;-79.438;2024-01-10T08:40:13;23.90;30.10
33580;DHT22;19909;43.644;-79.438;2024-01-10T08:42:42;23.90;30.20
33580;DHT22;19909;43.644;-79.438;2024-01-10T08:45:10;23.90;30.30
33580;DHT22;19909;43.644;-79.438;2024-01-10T08:47:37;23.80;30.40
33580;DHT22;19909;43.644;-79.438;2024-01-10T08:50:04;23.70;30.40
33580;DHT22;19909;43.644;-79.438;2024-01-10T08:52:35;23.70;30.50
33580;DHT22;19909;43.644;-79.438;2024-01-10T08:55:07;23.60;30.50
33580;DHT22;19909;43.644;-79.438;2024-01-10T08:57:33;23.50;30.60
33580;DHT22;19909;43.644;-79.438;2024-01-10T08:59:59;23.50;30.70
33580;DHT22;19909;43.644;-79.438;2024-01-10T09:02:26;23.40;30.70
33580;DHT22;19909;43.644;-79.438;2024-01-10T09:04:54;23.40;30.70
33580;DHT22;19909;43.644;-79.438;2024-01-10T09:07:21;23.30;30.70
33580;DHT22;19909;43.644;-79.438;2024-01-10T09:09:48;23.40;30.60
33580;DHT22;19909;43.644;-79.438;2024-01-10T09:12:15;23.40;30.50
33580;DHT22;19909;43.644;-79.438;2024-01-10T09:14:42;23.50;30.50
33580;DHT22;19909;43.644;-79.438;2024-01-10T09:17:08;23.60;30.40
33580;DHT22;19909;43.644;-79.438;2024-01-10T09:19:34;23.70;30.30
33580;DHT22;19909;43.644;-79.438;2024-01-10T09:22:00;23.80;30.10
33580;DHT22;19909;43.644;-79.438;2024-01-10T09:24:27;23.90;30.00
33580;DHT22;19909;43.644;-79.438;2024-01-10T09:26:53;23.90;30.10
33580;DHT22;19909;43.644;-79.438;2024-01-10T09:29:20;23.80;30.20
33580;DHT22;19909;43.644;-79.438;2024-01-10T09:31:46;23.80;30.30
33580;DHT22;19909;43.644;-79.438;2024-01-10T09:34:13;23.70;30.30
33580;DHT22;19909;43.644;-79.438;2024-01-10T09:36:39;23.70;30.40
33580;DHT22;19909;43.644;-79.438;2024-01-10T09:39:06;23.50;30.30
33580;DHT22;19909;43.644;-79.438;2024-01-10T09:41:46;23.50;30.40
33580;DHT22;19909;43.644;-79.438;2024-01-10T09:44:20;23.40;30.50
33580;DHT22;19909;43.644;-79.438;2024-01-10T09:46:52;23.40;30.60
33580;DHT22;19909;43.644;-79.438;2024-01-10T09:49:18;23.30;30.60
33580;DHT22;19909;43.644;-79.438;2024-01-10T09:51:48;23.30;30.50
33580;DHT22;19909;43.644;-79.438;2024-01-10T09:54:15;23.40;30.50
33580;DHT22;19909;43.644;-79.438;2024-01-10T09:56:43;23.40;30.40
33580;DHT22;19909;43.644;-79.438;2024-01-10T09:59:11;23.50;30.30
33580;DHT22;19909;43.644;-79.438;2024-01-10T10:01:38;23.60;30.20
33580;DHT22;19909;43.644;-79.438;2024-01-10T10:04:11;23.70;30.20
33580;DHT22;19909;43.644;-79.438;2024-01-10T10:06:38;23.80;30.00
33580;DHT22;19909;43.644;-79.438;2024-01-10T10:09:04;23.90;30.00
33580;DHT22;19909;43.644;-79.438;2024-01-10T10:11:32;23.90;30.00
33580;DHT22;19909;43.644;-79.438;2024-01-10T10:16:26;23.80;30.20
33580;DHT22;19909;43.644;-79.438;2024-01-10T10:18:53;23.70;30.20
33580;DHT22;19909;43.644;-79.438;2024-01-10T10:21:25;23.60;30.20
33580;DHT22;19909;43.644;-79.438;2024-01-10T10:23:59;23.60;30.30
33580;DHT22;19909;43.644;-79.438;2024-01-10T10:26:27;23.50;30.30
33580;DHT22;19909;43.644;-79.438;2024-01-10T10:28:55;23.40;30.30
33580;DHT22;19909;43.644;-79.438;2024-01-10T10:31:21;23.40;30.40
33580;DHT22;19909;43.644;-79.438;2024-01-10T10:33:49;23.30;30.40
33580;DHT22;19909;43.644;-79.438;2024-01-10T10:36:20;23.30;31.00
33580;DHT22;19909;43.644;-79.438;2024-01-10T10:38:47;23.30;30.50
33580;DHT22;19909;43.644;-79.438;2024-01-10T10:41:15;23.40;30.40
33580;DHT22;19909;43.644;-79.438;2024-01-10T10:43:41;23.40;30.20
33580;DHT22;19909;43.644;-79.438;2024-01-10T10:46:11;23.60;30.20
33580;DHT22;19909;43.644;-79.438;2024-01-10T10:48:42;23.70;30.10
33580;DHT22;19909;43.644;-79.438;2024-01-10T10:51:11;23.80;30.00
33580;DHT22;19909;43.644;-79.438;2024-01-10T10:53:42;23.90;30.00
33580;DHT22;19909;43.644;-79.438;2024-01-10T10:56:12;23.90;30.00
33580;DHT22;19909;43.644;-79.438;2024-01-10T10:58:48;23.80;30.10
33580;DHT22;19909;43.644;-79.438;2024-01-10T11:01:15;23.70;30.20
33580;DHT22;19909;43.644;-79.438;2024-01-10T11:03:41;23.70;30.30
33580;DHT22;19909;43.644;-79.438;2024-01-10T11:06:10;23.60;30.20
33580;DHT22;19909;43.644;-79.438;2024-01-10T11:08:52;23.50;30.20
33580;DHT22;19909;43.644;-79.438;2024-01-10T11:12:18;23.50;30.30
33580;DHT22;19909;43.644;-79.438;2024-01-10T11:23:22;23.20;30.40
33580;DHT22;19909;43.644;-79.438;2024-01-10T11:26:00;23.20;30.40
33580;DHT22;19909;43.644;-79.438;2024-01-10T11:28:31;23.30;30.40
33580;DHT22;19909;43.644;-79.438;2024-01-10T11:30:59;23.40;30.20
33580;DHT22;19909;43.644;-79.438;2024-01-10T11:33:31;23.50;30.20
33580;DHT22;19909;43.644;-79.438;2024-01-10T11:36:30;23.70;30.20
33580;DHT22;19909;43.644;-79.438;2024-01-10T11:39:03;23.80;30.00
33580;DHT22;19909;43.644;-79.438;2024-01-10T11:46:40;23.70;30.10
33580;DHT22;19909;43.644;-79.438;2024-01-10T11:49:11;23.70;30.20
33580;DHT22;19909;43.644;-79.438;2024-01-10T11:51:39;23.60;30.20
33580;DHT22;19909;43.644;-79.438;2024-01-10T11:54:05;23.50;30.20
33580;DHT22;19909;43.644;-79.438;2024-01-10T11:56:42;23.50;30.30
33580;DHT22;19909;43.644;-79.438;2024-01-10T11:59:12;23.40;30.40
33580;DHT22;19909;43.644;-79.438;2024-01-10T12:01:42;23.30;30.40
33580;DHT22;19909;43.644;-79.438;2024-01-10T12:04:10;23.20;30.40
33580;DHT22;19909;43.644;-79.438;2024-01-10T12:06:37;23.20;30.40
33580;DHT22;19909;43.644;-79.438;2024-01-10T12:09:04;23.30;30.40
33580;DHT22;19909;43.644;-79.438;2024-01-10T12:11:42;23.30;30.30
33580;DHT22;19909;43.644;-79.438;2024-01-10T12:14:09;23.40;30.20
33580;DHT22;19909;43.644;-79.438;2024-01-10T12:16:36;23.50;30.20
33580;DHT22;19909;43.644;-79.438;2024-01-10T12:19:03;23.60;30.10
33580;DHT22;19909;43.644;-79.438;2024-01-10T12:21:29;23.70;30.00
33580;DHT22;19909;43.644;-79.438;2024-01-10T12:23:56;23.80;30.00
33580;DHT22;19909;43.644;-79.438;2024-01-10T12:26:22;23.80;30.00
33580;DHT22;19909;43.644;-79.438;2024-01-10T12:31:15;23.70;30.00
33580;DHT22;19909;43.644;-79.438;2024-01-10T12:33:42;23.70;30.10
33580;DHT22;19909;43.644;-79.438;2024-01-10T12:36:11;23.60;30.10
33580;DHT22;19909;43.644;-79.438;2024-01-10T12:38:41;23.50;30.20
33580;DHT22;19909;43.644;-79.438;2024-01-10T12:41:08;23.40;30.20
33580;DHT22;19909;43.644;-79.438;2024-01-10T12:43:35;23.40;30.20
33580;DHT22;19909;43.644;-79.438;2024-01-10T12:46:09;23.40;30.30
33580;DHT22;19909;43.644;-79.438;2024-01-10T12:48:41;23.30;30.40
33580;DHT22;19909;43.644;-79.438;2024-01-10T12:51:08;23.30;30.40
33580;DHT22;19909;43.644;-79.438;2024-01-10T12:53:37;23.30;30.30
33580;DHT22;19909;43.644;-79.438;2024-01-10T12:56:04;23.40;30.30
33580;DHT22;19909;43.644;-79.438;2024-01-10T12:58:31;23.40;30.10
33580;DHT22;19909;43.644;-79.438;2024-01-10T13:00:57;23.50;30.10
33580;DHT22;19909;43.644;-79.438;2024-01-10T13:03:24;23.70;30.10
33580;DHT22;19909;43.644;-79.438;2024-01-10T13:05:51;23.80;30.00
33580;DHT22;19909;43.644;-79.438;2024-01-10T13:08:19;23.80;29.90
33580;DHT22;19909;43.644;-79.438;2024-01-10T13:10:46;23.80;30.00
33580;DHT22;19909;43.644;-79.438;2024-01-10T13:13:13;23.80;30.00
33580;DHT22;19909;43.644;-79.438;2024-01-10T13:15:41;23.70;30.00
33580;DHT22;19909;43.644;-79.438;2024-01-10T13:18:08;23.70;30.00
33580;DHT22;19909;43.644;-79.438;2024-01-10T13:20:36;23.60;30.10
33580;DHT22;19909;43.644;-79.438;2024-01-10T13:23:04;23.50;30.10
33580;DHT22;19909;43.644;-79.438;2024-01-10T13:25:31;23.50;30.20
33580;DHT22;19909;43.644;-79.438;2024-01-10T13:27:57;23.40;30.20
33580;DHT22;19909;43.644;-79.438;2024-01-10T13:30:24;23.30;30.20
33580;DHT22;19909;43.644;-79.438;2024-01-10T13:32:51;23.30;30.30
33580;DHT22;19909;43.644;-79.438;2024-01-10T13:35:17;23.30;30.20
33580;DHT22;19909;43.644;-79.438;2024-01-10T13:37:44;23.40;30.20
33580;DHT22;19909;43.644;-79.438;2024-01-10T13:40:11;23.40;30.10
33580;DHT22;19909;43.644;-79.438;2024-01-10T13:42:42;23.50;30.10
33580;DHT22;19909;43.644;-79.438;2024-01-10T13:45:10;23.60;30.60
33580;DHT22;19909;43.644;-79.438;2024-01-10T13:47:39;23.70;30.00
33580;DHT22;19909;43.644;-79.438;2024-01-10T13:50:06;23.80;29.90
33580;DHT22;19909;43.644;-79.438;2024-01-10T13:52:33;23.80;30.00
33580;DHT22;19909;43.644;-79.438;2024-01-10T13:55:00;23.80;30.00
33580;DHT22;19909;43.644;-79.438;2024-01-10T13:57:27;23.70;30.00
33580;DHT22;19909;43.644;-79.438;2024-01-10T13:59:53;23.60;30.00
33580;DHT22;19909;43.644;-79.438;2024-01-10T14:02:24;23.50;30.00
33580;DHT22;19909;43.644;-79.438;2024-01-10T14:04:53;23.50;30.10
33580;DHT22;19909;43.644;-79.438;2024-01-10T14:07:20;23.40;30.00
33580;DHT22;19909;43.644;-79.438;2024-01-10T14:09:47;23.40;30.10
33580;DHT22;19909;43.644;-79.438;2024-01-10T14:12:13;23.30;30.10
33580;DHT22;19909;43.644;-79.438;2024-01-10T14:14:39;23.20;30.10
33580;DHT22;19909;43.644;-79.438;2024-01-10T14:17:06;23.20;30.20
33580;DHT22;19909;43.644;-79.438;2024-01-10T14:19:32;23.20;30.30
33580;DHT22;19909;43.644;-79.438;2024-01-10T14:21:59;23.20;30.20
33580;DHT22;19909;43.644;-79.438;2024-01-10T14:24:25;23.20;30.20
33580;DHT22;19909;43.644;-79.438;2024-01-10T14:26:52;23.30;30.70
33580;DHT22;19909;43.644;-79.438;2024-01-10T14:29:19;23.40;30.10
33580;DHT22;19909;43.644;-79.438;2024-01-10T14:31:45;23.40;30.00
33580;DHT22;19909;43.644;-79.438;2024-01-10T14:34:11;23.60;30.00
33580;DHT22;19909;43.644;-79.438;2024-01-10T14:36:38;23.70;29.90
33580;DHT22;19909;43.644;-79.438;2024-01-10T14:39:06;23.80;29.80
33580;DHT22;19909;43.644;-79.438;2024-01-10T14:41:33;23.80;29.80
33580;DHT22;19909;43.644;-79.438;2024-01-10T14:44:02;23.70;29.80
33580;DHT22;19909;43.644;-79.438;2024-01-10T14:46:30;23.70;29.80
33580;DHT22;19909;43.644;-79.438;2024-01-10T14:48:56;23.60;29.80
33580;DHT22;19909;43.644;-79.438;2024-01-10T14:51:23;23.60;29.90
33580;DHT22;19909;43.644;-79.438;2024-01-10T14:53:49;23.50;29.90
33580;DHT22;19909;43.644;-79.438;2024-01-10T14:56:17;23.40;29.80
33580;DHT22;19909;43.644;-79.438;2024-01-10T14:58:44;23.30;29.90
33580;DHT22;19909;43.644;-79.438;2024-01-10T15:01:11;23.30;30.00
33580;DHT22;19909;43.644;-79.438;2024-01-10T15:03:38;23.20;29.90
33580;DHT22;19909;43.644;-79.438;2024-01-10T15:06:05;23.20;30.00
33580;DHT22;19909;43.644;-79.438;2024-01-10T15:08:34;23.30;29.90
33580;DHT22;19909;43.644;-79.438;2024-01-10T15:11:02;23.40;29.90
33580;DHT22;19909;43.644;-79.438;2024-01-10T15:13:29;23.40;30.20
33580;DHT22;19909;43.644;-79.438;2024-01-10T15:18:21;23.70;29.80
33580;DHT22;19909;43.644;-79.438;2024-01-10T15:20:48;23.70;29.60
33580;DHT22;19909;43.644;-79.438;2024-01-10T15:23:15;23.80;29.60
33580;DHT22;19909;43.644;-79.438;2024-01-10T15:25:41;23.80;29.50
33580;DHT22;19909;43.644;-79.438;2024-01-10T15:28:08;23.70;29.70
33580;DHT22;19909;43.644;-79.438;2024-01-10T15:30:34;23.60;29.70